sensor_id;sensor_type;location;lat;lon;timestamp;P1;durP1;ratioP1;P2;durP2;ratioP2
18383;SDS011;9318;48.644;9.456;2023-05-21T00:02:21;0.70;;;0.70;;
18383;SDS011;9318;48.644;9.456;2023-05-21T00:04:48;0.70;;;0.70;;
18383;SDS011;9318;48.644;9.456;2023-05-21T00:07:15;0.70;;;0.70;;
18383;SDS011;9318;48.644;9.456;2023-05-21T00:09:42;0.60;;;0.60;;
18383;SDS011;9318;48.644;9.456;2023-05-21T00:12:09;0.70;;;0.70;;
18383;SDS011;9318;48.644;9.456;2023-05-21T00:14:37;0.65;;;0.65;;
18383;SDS011;9318;48.644;9.456;2023-05-21T00:17:04;0.60;;;0.60;;
18383;SDS011;9318;48.644;9.456;2023-05-21T00:19:31;0.67;;;0.67;;
18383;SDS011;9318;48.644;9.456;2023-05-21T00:21:58;0.70;;;0.70;;
18383;SDS011;9318;48.644;9.456;2023-05-21T00:24:26;0.70;;;0.70;;
18383;SDS011;9318;48.644;9.456;2023-05-21T00:26:53;0.68;;;0.68;;
18383;SDS011;9318;48.644;9.456;2023-05-21T00:29:19;0.70;;;0.70;;
18383;SDS011;9318;48.644;9.456;2023-05-21T00:31:48;0.63;;;0.63;;
18383;SDS011;9318;48.644;9.456;2023-05-21T00:34:16;0.67;;;0.67;;
18383;SDS011;9318;48.644;9.456;2023-05-21T00:36:43;0.60;;;0.60;;
18383;SDS011;9318;48.644;9.456;2023-05-21T00:39:10;0.70;;;0.70;;
18383;SDS011;9318;48.644;9.456;2023-05-21T00:41:37;0.80;;;0.80;;
18383;SDS011;9318;48.644;9.456;2023-05-21T00:44:04;0.73;;;0.73;;
18383;SDS011;9318;48.644;9.456;2023-05-21T00:46:31;0.70;;;0.70;;
18383;SDS011;9318;48.644;9.456;2023-05-21T00:48:59;0.70;;;0.70;;
18383;SDS011;9318;48.644;9.456;2023-05-21T00:51:26;0.70;;;0.70;;
18383;SDS011;9318;48.644;9.456;2023-05-21T00:53:54;0.70;;;0.70;;
18383;SDS011;9318;48.644;9.456;2023-05-21T00:56:21;0.80;;;0.80;;
18383;SDS011;9318;48.644;9.456;2023-05-21T00:58:51;0.60;;;0.60;;
18383;SDS011;9318;48.644;9.456;2023-05-21T01:01:18;0.70;;;0.70;;
18383;SDS011;9318;48.644;9.456;2023-05-21T01:03:45;0.90;;;0.90;;
18383;SDS011;9318;48.644;9.456;2023-05-21T01:06:14;0.70;;;0.70;;
18383;SDS011;9318;48.644;9.456;2023-05-21T01:08:41;0.70;;;0.70;;
18383;SDS011;9318;48.644;9.456;2023-05-21T01:11:08;0.80;;;0.80;;
18383;SDS011;9318;48.644;9.456;2023-05-21T01:13:37;0.50;;;0.50;;
18383;SDS011;9318;48.644;9.456;2023-05-21T01:16:06;0.67;;;0.67;;
18383;SDS011;9318;48.644;9.456;2023-05-21T01:18:33;0.60;;;0.60;;
18383;SDS011;9318;48.644;9.456;2023-05-21T01:21:01;0.60;;;0.60;;
18383;SDS011;9318;48.644;9.456;2023-05-21T01:23:29;0.80;;;0.80;;
18383;SDS011;9318;48.644;9.456;2023-05-21T01:25:57;0.60;;;0.60;;
18383;SDS011;9318;48.644;9.456;2023-05-21T01:28:23;0.70;;;0.70;;
18383;SDS011;9318;48.644;9.456;2023-05-21T01:30:50;0.73;;;0.73;;
18383;SDS011;9318;48.644;9.456;2023-05-21T01:33:18;0.70;;;0.70;;
18383;SDS011;9318;48.644;9.456;2023-05-21T01:35:53;0.70;;;0.70;;
18383;SDS011;9318;48.644;9.456;2023-05-21T01:38:28;0.70;;;0.70;;
18383;SDS011;9318;48.644;9.456;2023-05-21T01:41:01;0.70;;;0.70;;
18383;SDS011;9318;48.644;9.456;2023-05-21T01:43:30;0.70;;;0.70;;
18383;SDS011;9318;48.644;9.456;2023-05-21T01:45:59;0.70;;;0.70;;
18383;SDS011;9318;48.644;9.456;2023-05-21T01:48:27;0.70;;;0.70;;
18383;SDS011;9318;48.644;9.456;2023-05-21T01:50:56;0.70;;;0.70;;
18383;SDS011;9318;48.644;9.456;2023-05-21T01:53:25;0.60;;;0.60;;
18383;SDS011;9318;48.644;9.456;2023-05-21T01:55:53;0.80;;;0.80;;
18383;SDS011;9318;48.644;9.456;2023-05-21T01:58:20;0.70;;;0.70;;
18383;SDS011;9318;48.644;9.456;2023-05-21T02:00:48;0.70;;;0.70;;
18383;SDS011;9318;48.644;9.456;2023-05-21T02:03:15;0.60;;;0.60;;
18383;SDS011;9318;48.644;9.456;2023-05-21T02:05:42;0.80;;;0.80;;
18383;SDS011;9318;48.644;9.456;2023-05-21T02:08:09;0.70;;;0.70;;
18383;SDS011;9318;48.644;9.456;2023-05-21T02:10:36;0.80;;;0.80;;
18383;SDS011;9318;48.644;9.456;2023-05-21T02:13:05;0.80;;;0.80;;
18383;SDS011;9318;48.644;9.456;2023-05-21T02:15:31;0.70;;;0.70;;
18383;SDS011;9318;48.644;9.456;2023-05-21T02:17:59;0.80;;;0.80;;
18383;SDS011;9318;48.644;9.456;2023-05-21T02:20:26;0.80;;;0.80;;
18383;SDS011;9318;48.644;9.456;2023-05-21T02:22:53;0.70;;;0.70;;
18383;SDS011;9318;48.644;9.456;2023-05-21T02:25:19;0.70;;;0.70;;
18383;SDS011;9318;48.644;9.456;2023-05-21T02:27:46;0.80;;;0.80;;
18383;SDS011;9318;48.644;9.456;2023-05-21T02:30:18;0.80;;;0.80;;
18383;SDS011;9318;48.644;9.456;2023-05-21T02:32:45;0.70;;;0.70;;
18383;SDS011;9318;48.644;9.456;2023-05-21T02:35:12;0.80;;;0.80;;
18383;SDS011;9318;48.644;9.456;2023-05-21T02:37:39;0.70;;;0.70;;
18383;SDS011;9318;48.644;9.456;2023-05-21T02:40:08;0.90;;;0.90;;
18383;SDS011;9318;48.644;9.456;2023-05-21T02:42:35;0.70;;;0.70;;
18383;SDS011;9318;48.644;9.456;2023-05-21T02:45:04;0.90;;;0.90;;
18383;SDS011;9318;48.644;9.456;2023-05-21T02:47:33;0.77;;;0.77;;
18383;SDS011;9318;48.644;9.456;2023-05-21T02:49:59;0.80;;;0.80;;
18383;SDS011;9318;48.644;9.456;2023-05-21T02:52:26;0.80;;;0.80;;
18383;SDS011;9318;48.644;9.456;2023-05-21T02:54:53;0.80;;;0.80;;
18383;SDS011;9318;48.644;9.456;2023-05-21T02:57:20;0.80;;;0.80;;
18383;SDS011;9318;48.644;9.456;2023-05-21T02:59:47;0.80;;;0.80;;
18383;SDS011;9318;48.644;9.456;2023-05-21T03:02:13;0.70;;;0.70;;
18383;SDS011;9318;48.644;9.456;2023-05-21T03:04:42;0.63;;;0.63;;
18383;SDS011;9318;48.644;9.456;2023-05-21T03:07:10;0.80;;;0.80;;
18383;SDS011;9318;48.644;9.456;2023-05-21T03:09:38;0.70;;;0.70;;
18383;SDS011;9318;48.644;9.456;2023-05-21T03:12:06;0.80;;;0.80;;
18383;SDS011;9318;48.644;9.456;2023-05-21T03:14:33;0.67;;;0.67;;
18383;SDS011;9318;48.644;9.456;2023-05-21T03:17:00;0.80;;;0.80;;
18383;SDS011;9318;48.644;9.456;2023-05-21T03:19:29;0.90;;;0.90;;
18383;SDS011;9318;48.644;9.456;2023-05-21T03:22:00;0.73;;;0.73;;
18383;SDS011;9318;48.644;9.456;2023-05-21T03:24:26;0.90;;;0.90;;
18383;SDS011;9318;48.644;9.456;2023-05-21T03:26:54;0.83;;;0.83;;
18383;SDS011;9318;48.644;9.456;2023-05-21T03:29:21;0.70;;;0.70;;
18383;SDS011;9318;48.644;9.456;2023-05-21T03:31:47;0.80;;;0.80;;
18383;SDS011;9318;48.644;9.456;2023-05-21T03:34:15;0.90;;;0.90;;
18383;SDS011;9318;48.644;9.456;2023-05-21T03:36:44;0.80;;;0.80;;
18383;SDS011;9318;48.644;9.456;2023-05-21T03:39:12;0.80;;;0.80;;
18383;SDS011;9318;48.644;9.456;2023-05-21T03:41:39;0.90;;;0.90;;
18383;SDS011;9318;48.644;9.456;2023-05-21T03:44:05;0.77;;;0.77;;
18383;SDS011;9318;48.644;9.456;2023-05-21T03:46:32;0.70;;;0.70;;
18383;SDS011;9318;48.644;9.456;2023-05-21T03:48:59;0.77;;;0.77;;
18383;SDS011;9318;48.644;9.456;2023-05-21T03:51:26;1.00;;;1.00;;
18383;SDS011;9318;48.644;9.456;2023-05-21T03:53:56;0.70;;;0.70;;
18383;SDS011;9318;48.644;9.456;2023-05-21T03:56:24;0.70;;;0.70;;
18383;SDS011;9318;48.644;9.456;2023-05-21T03:58:51;0.70;;;0.70;;
18383;SDS011;9318;48.644;9.456;2023-05-21T04:01:17;0.90;;;0.90;;
18383;SDS011;9318;48.644;9.456;2023-05-21T04:03:44;0.80;;;0.80;;
18383;SDS011;9318;48.644;9.456;2023-05-21T04:06:11;0.90;;;0.90;;
18383;SDS011;9318;48.644;9.456;2023-05-21T04:08:39;0.77;;;0.77;;
18383;SDS011;9318;48.644;9.456;2023-05-21T04:11:06;0.90;;;0.90;;
18383;SDS011;9318;48.644;9.456;2023-05-21T04:13:34;0.80;;;0.80;;
18383;SDS011;9318;48.644;9.456;2023-05-21T04:16:01;0.87;;;0.87;;
18383;SDS011;9318;48.644;9.456;2023-05-21T04:18:28;0.80;;;0.80;;
18383;SDS011;9318;48.644;9.456;2023-05-21T04:20:54;0.80;;;0.80;;
18383;SDS011;9318;48.644;9.456;2023-05-21T04:23:22;0.90;;;0.90;;
18383;SDS011;9318;48.644;9.456;2023-05-21T04:25:49;0.90;;;0.90;;
18383;SDS011;9318;48.644;9.456;2023-05-21T04:28:16;0.70;;;0.70;;
18383;SDS011;9318;48.644;9.456;2023-05-21T04:30:45;0.90;;;0.90;;
18383;SDS011;9318;48.644;9.456;2023-05-21T04:33:12;0.90;;;0.90;;
18383;SDS011;9318;48.644;9.456;2023-05-21T04:35:41;0.70;;;0.70;;
18383;SDS011;9318;48.644;9.456;2023-05-21T04:38:09;0.90;;;0.90;;
18383;SDS011;9318;48.644;9.456;2023-05-21T04:40:36;0.90;;;0.90;;
18383;SDS011;9318;48.644;9.456;2023-05-21T04:43:04;0.80;;;0.80;;
18383;SDS011;9318;48.644;9.456;2023-05-21T04:45:32;0.70;;;0.70;;
18383;SDS011;9318;48.644;9.456;2023-05-21T04:48:00;0.90;;;0.90;;
18383;SDS011;9318;48.644;9.456;2023-05-21T04:50:26;0.77;;;0.77;;
18383;SDS011;9318;48.644;9.456;2023-05-21T04:52:54;0.80;;;0.80;;
18383;SDS011;9318;48.644;9.456;2023-05-21T04:55:22;0.70;;;0.70;;
18383;SDS011;9318;48.644;9.456;2023-05-21T04:57:49;0.80;;;0.80;;
18383;SDS011;9318;48.644;9.456;2023-05-21T05:00:17;0.80;;;0.80;;
18383;SDS011;9318;48.644;9.456;2023-05-21T05:02:44;0.83;;;0.83;;
18383;SDS011;9318;48.644;9.456;2023-05-21T05:05:12;0.80;;;0.80;;
18383;SDS011;9318;48.644;9.456;2023-05-21T05:07:39;0.80;;;0.80;;
18383;SDS011;9318;48.644;9.456;2023-05-21T05:10:07;0.60;;;0.60;;
18383;SDS011;9318;48.644;9.456;2023-05-21T05:12:33;0.80;;;0.80;;
18383;SDS011;9318;48.644;9.456;2023-05-21T05:15:00;0.80;;;0.80;;
18383;SDS011;9318;48.644;9.456;2023-05-21T05:17:27;0.70;;;0.70;;
18383;SDS011;9318;48.644;9.456;2023-05-21T05:19:54;0.70;;;0.70;;
18383;SDS011;9318;48.644;9.456;2023-05-21T05:22:22;0.70;;;0.70;;
18383;SDS011;9318;48.644;9.456;2023-05-21T05:24:49;0.90;;;0.90;;
18383;SDS011;9318;48.644;9.456;2023-05-21T05:27:16;0.80;;;0.80;;
18383;SDS011;9318;48.644;9.456;2023-05-21T05:29:43;0.70;;;0.70;;
18383;SDS011;9318;48.644;9.456;2023-05-21T05:32:10;0.80;;;0.80;;
18383;SDS011;9318;48.644;9.456;2023-05-21T05:34:36;0.70;;;0.70;;
18383;SDS011;9318;48.644;9.456;2023-05-21T05:37:03;0.80;;;0.80;;
18383;SDS011;9318;48.644;9.456;2023-05-21T05:39:32;0.70;;;0.70;;
18383;SDS011;9318;48.644;9.456;2023-05-21T05:41:58;0.80;;;0.80;;
18383;SDS011;9318;48.644;9.456;2023-05-21T05:44:25;0.80;;;0.80;;
18383;SDS011;9318;48.644;9.456;2023-05-21T05:46:52;0.80;;;0.80;;
18383;SDS011;9318;48.644;9.456;2023-05-21T05:49:19;0.70;;;0.70;;
18383;SDS011;9318;48.644;9.456;2023-05-21T05:51:46;0.70;;;0.70;;
18383;SDS011;9318;48.644;9.456;2023-05-21T05:54:12;0.80;;;0.80;;
18383;SDS011;9318;48.644;9.456;2023-05-21T05:56:40;0.60;;;0.60;;
18383;SDS011;9318;48.644;9.456;2023-05-21T05:59:07;0.60;;;0.60;;
18383;SDS011;9318;48.644;9.456;2023-05-21T06:01:34;0.67;;;0.67;;
18383;SDS011;9318;48.644;9.456;2023-05-21T06:04:01;0.53;;;0.53;;
18383;SDS011;9318;48.644;9.456;2023-05-21T06:06:27;0.70;;;0.70;;
18383;SDS011;9318;48.644;9.456;2023-05-21T06:08:55;0.70;;;0.70;;
18383;SDS011;9318;48.644;9.456;2023-05-21T06:11:22;0.60;;;0.60;;
18383;SDS011;9318;48.644;9.456;2023-05-21T06:13:50;0.55;;;0.55;;
18383;SDS011;9318;48.644;9.456;2023-05-21T06:16:17;0.60;;;0.60;;
18383;SDS011;9318;48.644;9.456;2023-05-21T06:18:44;0.60;;;0.60;;
18383;SDS011;9318;48.644;9.456;2023-05-21T06:21:10;0.70;;;0.70;;
18383;SDS011;9318;48.644;9.456;2023-05-21T06:23:37;0.77;;;0.77;;
18383;SDS011;9318;48.644;9.456;2023-05-21T06:26:04;0.52;;;0.52;;
18383;SDS011;9318;48.644;9.456;2023-05-21T06:28:31;0.60;;;0.60;;
18383;SDS011;9318;48.644;9.456;2023-05-21T06:30:59;0.57;;;0.57;;
18383;SDS011;9318;48.644;9.456;2023-05-21T06:33:26;0.57;;;0.57;;
18383;SDS011;9318;48.644;9.456;2023-05-21T06:35:53;0.55;;;0.55;;
18383;SDS011;9318;48.644;9.456;2023-05-21T06:38:20;0.40;;;0.40;;
18383;SDS011;9318;48.644;9.456;2023-05-21T06:40:47;0.50;;;0.50;;
18383;SDS011;9318;48.644;9.456;2023-05-21T06:43:13;0.60;;;0.60;;
18383;SDS011;9318;48.644;9.456;2023-05-21T06:45:40;0.57;;;0.57;;
18383;SDS011;9318;48.644;9.456;2023-05-21T06:48:08;0.50;;;0.50;;
18383;SDS011;9318;48.644;9.456;2023-05-21T06:50:36;0.40;;;0.40;;
18383;SDS011;9318;48.644;9.456;2023-05-21T06:53:02;0.40;;;0.40;;
18383;SDS011;9318;48.644;9.456;2023-05-21T06:55:29;0.40;;;0.40;;
18383;SDS011;9318;48.644;9.456;2023-05-21T06:57:56;0.40;;;0.40;;
18383;SDS011;9318;48.644;9.456;2023-05-21T07:00:23;0.50;;;0.50;;
18383;SDS011;9318;48.644;9.456;2023-05-21T07:02:49;0.45;;;0.45;;
18383;SDS011;9318;48.644;9.456;2023-05-21T07:05:18;0.50;;;0.50;;
18383;SDS011;9318;48.644;9.456;2023-05-21T07:07:45;0.43;;;0.43;;
18383;SDS011;9318;48.644;9.456;2023-05-21T07:10:11;0.50;;;0.50;;
18383;SDS011;9318;48.644;9.456;2023-05-21T07:12:38;0.43;;;0.43;;
18383;SDS011;9318;48.644;9.456;2023-05-21T07:15:06;0.50;;;0.50;;
18383;SDS011;9318;48.644;9.456;2023-05-21T07:17:33;0.50;;;0.50;;
18383;SDS011;9318;48.644;9.456;2023-05-21T07:20:01;0.50;;;0.50;;
18383;SDS011;9318;48.644;9.456;2023-05-21T07:22:29;0.40;;;0.40;;
18383;SDS011;9318;48.644;9.456;2023-05-21T07:24:56;0.40;;;0.40;;
18383;SDS011;9318;48.644;9.456;2023-05-21T07:27:23;0.40;;;0.40;;
18383;SDS011;9318;48.644;9.456;2023-05-21T07:29:50;0.52;;;0.52;;
18383;SDS011;9318;48.644;9.456;2023-05-21T07:32:17;0.43;;;0.43;;
18383;SDS011;9318;48.644;9.456;2023-05-21T07:34:43;0.40;;;0.40;;
18383;SDS011;9318;48.644;9.456;2023-05-21T07:37:11;0.40;;;0.40;;
18383;SDS011;9318;48.644;9.456;2023-05-21T07:39:39;0.40;;;0.40;;
18383;SDS011;9318;48.644;9.456;2023-05-21T07:42:06;0.32;;;0.32;;
18383;SDS011;9318;48.644;9.456;2023-05-21T07:44:32;0.50;;;0.50;;
18383;SDS011;9318;48.644;9.456;2023-05-21T07:46:59;0.50;;;0.50;;
18383;SDS011;9318;48.644;9.456;2023-05-21T07:49:26;0.50;;;0.50;;
18383;SDS011;9318;48.644;9.456;2023-05-21T07:51:53;0.30;;;0.30;;
18383;SDS011;9318;48.644;9.456;2023-05-21T07:54:19;0.60;;;0.60;;
18383;SDS011;9318;48.644;9.456;2023-05-21T07:56:47;0.45;;;0.45;;
18383;SDS011;9318;48.644;9.456;2023-05-21T07:59:15;0.50;;;0.50;;
18383;SDS011;9318;48.644;9.456;2023-05-21T08:01:42;0.50;;;0.50;;
18383;SDS011;9318;48.644;9.456;2023-05-21T08:04:08;0.40;;;0.40;;
18383;SDS011;9318;48.644;9.456;2023-05-21T08:06:35;0.40;;;0.40;;
18383;SDS011;9318;48.644;9.456;2023-05-21T08:09:02;0.50;;;0.50;;
18383;SDS011;9318;48.644;9.456;2023-05-21T08:11:30;0.40;;;0.40;;
18383;SDS011;9318;48.644;9.456;2023-05-21T08:13:58;0.43;;;0.43;;
18383;SDS011;9318;48.644;9.456;2023-05-21T08:16:25;0.40;;;0.40;;
18383;SDS011;9318;48.644;9.456;2023-05-21T08:18:52;0.45;;;0.45;;
18383;SDS011;9318;48.644;9.456;2023-05-21T08:21:18;0.40;;;0.40;;
18383;SDS011;9318;48.644;9.456;2023-05-21T08:23:45;0.40;;;0.40;;
18383;SDS011;9318;48.644;9.456;2023-05-21T08:26:12;0.40;;;0.40;;
18383;SDS011;9318;48.644;9.456;2023-05-21T08:28:40;0.40;;;0.40;;
18383;SDS011;9318;48.644;9.456;2023-05-21T08:31:08;0.50;;;0.50;;
18383;SDS011;9318;48.644;9.456;2023-05-21T08:33:36;0.20;;;0.20;;
18383;SDS011;9318;48.644;9.456;2023-05-21T08:36:03;0.40;;;0.40;;
18383;SDS011;9318;48.644;9.456;2023-05-21T08:38:31;0.50;;;0.50;;
18383;SDS011;9318;48.644;9.456;2023-05-21T08:40:58;0.40;;;0.40;;
18383;SDS011;9318;48.644;9.456;2023-05-21T08:43:26;0.30;;;0.30;;
18383;SDS011;9318;48.644;9.456;2023-05-21T08:45:54;0.30;;;0.30;;
18383;SDS011;9318;48.644;9.456;2023-05-21T08:48:24;0.40;;;0.40;;
18383;SDS011;9318;48.644;9.456;2023-05-21T08:50:51;0.30;;;0.30;;
18383;SDS011;9318;48.644;9.456;2023-05-21T08:53:19;0.35;;;0.35;;
18383;SDS011;9318;48.644;9.456;2023-05-21T08:55:46;0.40;;;0.40;;
18383;SDS011;9318;48.644;9.456;2023-05-21T08:58:14;0.38;;;0.38;;
18383;SDS011;9318;48.644;9.456;2023-05-21T09:00:41;0.50;;;0.50;;
18383;SDS011;9318;48.644;9.456;2023-05-21T09:03:08;0.30;;;0.30;;
18383;SDS011;9318;48.644;9.456;2023-05-21T09:05:39;0.30;;;0.30;;
18383;SDS011;9318;48.644;9.456;2023-05-21T09:08:10;0.32;;;0.32;;
18383;SDS011;9318;48.644;9.456;2023-05-21T09:10:45;0.40;;;0.40;;
18383;SDS011;9318;48.644;9.456;2023-05-21T09:13:14;0.30;;;0.30;;
18383;SDS011;9318;48.644;9.456;2023-05-21T09:15:42;0.30;;;0.30;;
18383;SDS011;9318;48.644;9.456;2023-05-21T09:18:09;0.40;;;0.40;;
18383;SDS011;9318;48.644;9.456;2023-05-21T09:20:36;0.28;;;0.28;;
18383;SDS011;9318;48.644;9.456;2023-05-21T09:23:04;0.40;;;0.40;;
18383;SDS011;9318;48.644;9.456;2023-05-21T09:25:36;0.38;;;0.38;;
18383;SDS011;9318;48.644;9.456;2023-05-21T09:28:09;0.30;;;0.30;;
18383;SDS011;9318;48.644;9.456;2023-05-21T09:30:36;0.20;;;0.20;;
18383;SDS011;9318;48.644;9.456;2023-05-21T09:33:09;0.40;;;0.40;;
18383;SDS011;9318;48.644;9.456;2023-05-21T09:35:36;0.40;;;0.40;;
18383;SDS011;9318;48.644;9.456;2023-05-21T09:38:11;0.40;;;0.40;;
18383;SDS011;9318;48.644;9.456;2023-05-21T09:40:41;0.38;;;0.38;;
18383;SDS011;9318;48.644;9.456;2023-05-21T09:43:12;0.40;;;0.40;;
18383;SDS011;9318;48.644;9.456;2023-05-21T09:45:43;0.40;;;0.40;;
18383;SDS011;9318;48.644;9.456;2023-05-21T09:48:16;0.40;;;0.40;;
18383;SDS011;9318;48.644;9.456;2023-05-21T09:51:05;0.40;;;0.40;;
18383;SDS011;9318;48.644;9.456;2023-05-21T09:53:40;0.40;;;0.40;;
18383;SDS011;9318;48.644;9.456;2023-05-21T09:56:08;0.30;;;0.30;;
18383;SDS011;9318;48.644;9.456;2023-05-21T09:58:35;0.30;;;0.30;;
18383;SDS011;9318;48.644;9.456;2023-05-21T10:01:03;0.40;;;0.40;;
18383;SDS011;9318;48.644;9.456;2023-05-21T10:03:31;0.30;;;0.30;;
18383;SDS011;9318;48.644;9.456;2023-05-21T10:06:03;0.40;;;0.40;;
18383;SDS011;9318;48.644;9.456;2023-05-21T10:08:33;0.30;;;0.30;;
18383;SDS011;9318;48.644;9.456;2023-05-21T10:11:04;0.32;;;0.32;;
18383;SDS011;9318;48.644;9.456;2023-05-21T10:13:31;0.30;;;0.30;;
18383;SDS011;9318;48.644;9.456;2023-05-21T10:16:02;0.40;;;0.40;;
18383;SDS011;9318;48.644;9.456;2023-05-21T10:18:30;0.40;;;0.40;;
18383;SDS011;9318;48.644;9.456;2023-05-21T10:20:58;0.35;;;0.35;;
18383;SDS011;9318;48.644;9.456;2023-05-21T10:23:26;0.32;;;0.32;;
18383;SDS011;9318;48.644;9.456;2023-05-21T10:25:54;0.35;;;0.35;;
18383;SDS011;9318;48.644;9.456;2023-05-21T10:28:22;0.40;;;0.40;;
18383;SDS011;9318;48.644;9.456;2023-05-21T10:30:49;0.40;;;0.40;;
18383;SDS011;9318;48.644;9.456;2023-05-21T10:33:17;0.30;;;0.30;;
18383;SDS011;9318;48.644;9.456;2023-05-21T10:35:45;0.30;;;0.30;;
18383;SDS011;9318;48.644;9.456;2023-05-21T10:38:12;0.40;;;0.40;;
18383;SDS011;9318;48.644;9.456;2023-05-21T10:40:42;0.38;;;0.38;;
18383;SDS011;9318;48.644;9.456;2023-05-21T10:43:12;0.40;;;0.40;;
18383;SDS011;9318;48.644;9.456;2023-05-21T10:46:05;0.28;;;0.28;;
18383;SDS011;9318;48.644;9.456;2023-05-21T10:48:48;0.30;;;0.30;;
18383;SDS011;9318;48.644;9.456;2023-05-21T10:51:24;0.30;;;0.30;;
18383;SDS011;9318;48.644;9.456;2023-05-21T10:56:53;0.30;;;0.30;;
18383;SDS011;9318;48.644;9.456;2023-05-21T10:59:35;0.30;;;0.30;;
18383;SDS011;9318;48.644;9.456;2023-05-21T11:02:07;0.30;;;0.30;;
18383;SDS011;9318;48.644;9.456;2023-05-21T11:04:36;0.38;;;0.38;;
18383;SDS011;9318;48.644;9.456;2023-05-21T11:07:06;0.40;;;0.40;;
18383;SDS011;9318;48.644;9.456;2023-05-21T11:09:32;0.30;;;0.30;;
18383;SDS011;9318;48.644;9.456;2023-05-21T11:11:59;0.30;;;0.30;;
18383;SDS011;9318;48.644;9.456;2023-05-21T11:14:32;0.30;;;0.30;;
18383;SDS011;9318;48.644;9.456;2023-05-21T11:17:08;0.28;;;0.28;;
18383;SDS011;9318;48.644;9.456;2023-05-21T11:19:37;0.40;;;0.40;;
18383;SDS011;9318;48.644;9.456;2023-05-21T11:22:05;0.30;;;0.30;;
18383;SDS011;9318;48.644;9.456;2023-05-21T11:24:45;0.30;;;0.30;;
18383;SDS011;9318;48.644;9.456;2023-05-21T11:27:12;0.40;;;0.40;;
18383;SDS011;9318;48.644;9.456;2023-05-21T11:29:55;0.30;;;0.30;;
18383;SDS011;9318;48.644;9.456;2023-05-21T11:32:23;0.40;;;0.40;;
18383;SDS011;9318;48.644;9.456;2023-05-21T11:34:49;0.30;;;0.30;;
18383;SDS011;9318;48.644;9.456;2023-05-21T11:37:23;0.40;;;0.40;;
18383;SDS011;9318;48.644;9.456;2023-05-21T11:39:54;0.30;;;0.30;;
18383;SDS011;9318;48.644;9.456;2023-05-21T11:42:31;0.40;;;0.40;;
18383;SDS011;9318;48.644;9.456;2023-05-21T11:44:59;0.30;;;0.30;;
18383;SDS011;9318;48.644;9.456;2023-05-21T11:47:28;0.20;;;0.20;;
18383;SDS011;9318;48.644;9.456;2023-05-21T11:49:57;0.30;;;0.30;;
18383;SDS011;9318;48.644;9.456;2023-05-21T11:52:24;0.30;;;0.30;;
18383;SDS011;9318;48.644;9.456;2023-05-21T11:54:51;0.40;;;0.40;;
18383;SDS011;9318;48.644;9.456;2023-05-21T11:57:19;0.35;;;0.35;;
18383;SDS011;9318;48.644;9.456;2023-05-21T11:59:47;0.38;;;0.38;;
18383;SDS011;9318;48.644;9.456;2023-05-21T12:02:16;0.30;;;0.30;;
18383;SDS011;9318;48.644;9.456;2023-05-21T12:04:45;0.40;;;0.40;;
18383;SDS011;9318;48.644;9.456;2023-05-21T12:07:14;0.30;;;0.30;;
18383;SDS011;9318;48.644;9.456;2023-05-21T12:09:43;0.30;;;0.30;;
18383;SDS011;9318;48.644;9.456;2023-05-21T12:12:11;0.40;;;0.40;;
18383;SDS011;9318;48.644;9.456;2023-05-21T12:14:41;0.32;;;0.32;;
18383;SDS011;9318;48.644;9.456;2023-05-21T12:17:10;0.30;;;0.30;;
18383;SDS011;9318;48.644;9.456;2023-05-21T12:19:38;0.40;;;0.40;;
18383;SDS011;9318;48.644;9.456;2023-05-21T12:22:07;0.30;;;0.30;;
18383;SDS011;9318;48.644;9.456;2023-05-21T12:24:35;0.40;;;0.40;;
18383;SDS011;9318;48.644;9.456;2023-05-21T12:27:03;0.30;;;0.30;;
18383;SDS011;9318;48.644;9.456;2023-05-21T12:29:34;0.40;;;0.40;;
18383;SDS011;9318;48.644;9.456;2023-05-21T12:32:01;0.38;;;0.38;;
18383;SDS011;9318;48.644;9.456;2023-05-21T12:34:37;0.40;;;0.40;;
18383;SDS011;9318;48.644;9.456;2023-05-21T12:37:10;0.30;;;0.30;;
18383;SDS011;9318;48.644;9.456;2023-05-21T12:39:37;0.20;;;0.20;;
18383;SDS011;9318;48.644;9.456;2023-05-21T12:42:05;0.40;;;0.40;;
18383;SDS011;9318;48.644;9.456;2023-05-21T12:44:32;0.28;;;0.28;;
18383;SDS011;9318;48.644;9.456;2023-05-21T12:46:59;0.30;;;0.30;;
18383;SDS011;9318;48.644;9.456;2023-05-21T12:49:29;0.30;;;0.30;;
18383;SDS011;9318;48.644;9.456;2023-05-21T12:52:01;0.30;;;0.30;;
18383;SDS011;9318;48.644;9.456;2023-05-21T12:54:34;0.30;;;0.30;;
18383;SDS011;9318;48.644;9.456;2023-05-21T12:57:05;0.30;;;0.30;;
18383;SDS011;9318;48.644;9.456;2023-05-21T12:59:48;0.30;;;0.30;;
18383;SDS011;9318;48.644;9.456;2023-05-21T13:02:19;0.40;;;0.40;;
18383;SDS011;9318;48.644;9.456;2023-05-21T13:04:47;0.30;;;0.30;;
18383;SDS011;9318;48.644;9.456;2023-05-21T13:07:14;0.40;;;0.40;;
18383;SDS011;9318;48.644;9.456;2023-05-21T13:09:42;0.30;;;0.30;;
18383;SDS011;9318;48.644;9.456;2023-05-21T13:12:10;0.47;;;0.47;;
18383;SDS011;9318;48.644;9.456;2023-05-21T13:14:37;0.30;;;0.30;;
18383;SDS011;9318;48.644;9.456;2023-05-21T13:17:03;0.30;;;0.30;;
18383;SDS011;9318;48.644;9.456;2023-05-21T13:19:30;0.40;;;0.40;;
18383;SDS011;9318;48.644;9.456;2023-05-21T13:21:58;0.30;;;0.30;;
18383;SDS011;9318;48.644;9.456;2023-05-21T13:24:25;0.30;;;0.30;;
18383;SDS011;9318;48.644;9.456;2023-05-21T13:26:53;0.32;;;0.32;;
18383;SDS011;9318;48.644;9.456;2023-05-21T13:29:20;0.30;;;0.30;;
18383;SDS011;9318;48.644;9.456;2023-05-21T13:31:47;0.30;;;0.30;;
18383;SDS011;9318;48.644;9.456;2023-05-21T13:34:13;0.40;;;0.40;;
18383;SDS011;9318;48.644;9.456;2023-05-21T13:36:40;0.30;;;0.30;;
18383;SDS011;9318;48.644;9.456;2023-05-21T13:39:07;0.40;;;0.40;;
18383;SDS011;9318;48.644;9.456;2023-05-21T13:41:34;0.40;;;0.40;;
18383;SDS011;9318;48.644;9.456;2023-05-21T13:44:02;0.40;;;0.40;;
18383;SDS011;9318;48.644;9.456;2023-05-21T13:46:29;0.30;;;0.30;;
18383;SDS011;9318;48.644;9.456;2023-05-21T13:48:55;0.30;;;0.30;;
18383;SDS011;9318;48.644;9.456;2023-05-21T13:51:22;0.40;;;0.40;;
18383;SDS011;9318;48.644;9.456;2023-05-21T13:53:49;0.30;;;0.30;;
18383;SDS011;9318;48.644;9.456;2023-05-21T13:56:15;0.30;;;0.30;;
18383;SDS011;9318;48.644;9.456;2023-05-21T13:58:44;0.20;;;0.20;;
18383;SDS011;9318;48.644;9.456;2023-05-21T14:01:12;0.30;;;0.30;;
18383;SDS011;9318;48.644;9.456;2023-05-21T14:03:39;0.40;;;0.40;;
18383;SDS011;9318;48.644;9.456;2023-05-21T14:06:06;0.30;;;0.30;;
18383;SDS011;9318;48.644;9.456;2023-05-21T14:08:33;0.30;;;0.30;;
18383;SDS011;9318;48.644;9.456;2023-05-21T14:10:59;0.40;;;0.40;;
18383;SDS011;9318;48.644;9.456;2023-05-21T14:13:26;0.40;;;0.40;;
18383;SDS011;9318;48.644;9.456;2023-05-21T14:15:53;0.30;;;0.30;;
18383;SDS011;9318;48.644;9.456;2023-05-21T14:18:21;0.30;;;0.30;;
18383;SDS011;9318;48.644;9.456;2023-05-21T14:20:48;0.38;;;0.38;;
18383;SDS011;9318;48.644;9.456;2023-05-21T14:23:15;0.30;;;0.30;;
18383;SDS011;9318;48.644;9.456;2023-05-21T14:25:42;0.40;;;0.40;;
18383;SDS011;9318;48.644;9.456;2023-05-21T14:28:08;0.30;;;0.30;;
18383;SDS011;9318;48.644;9.456;2023-05-21T14:30:35;0.32;;;0.32;;
18383;SDS011;9318;48.644;9.456;2023-05-21T14:33:02;0.40;;;0.40;;
18383;SDS011;9318;48.644;9.456;2023-05-21T14:35:30;0.40;;;0.40;;
18383;SDS011;9318;48.644;9.456;2023-05-21T14:37:57;0.40;;;0.40;;
18383;SDS011;9318;48.644;9.456;2023-05-21T14:40:23;0.40;;;0.40;;
18383;SDS011;9318;48.644;9.456;2023-05-21T14:42:50;0.30;;;0.30;;
18383;SDS011;9318;48.644;9.456;2023-05-21T14:45:18;0.32;;;0.32;;
18383;SDS011;9318;48.644;9.456;2023-05-21T14:47:45;0.30;;;0.30;;
18383;SDS011;9318;48.644;9.456;2023-05-21T14:50:13;0.30;;;0.30;;
18383;SDS011;9318;48.644;9.456;2023-05-21T14:52:42;0.30;;;0.30;;
18383;SDS011;9318;48.644;9.456;2023-05-21T14:55:09;0.40;;;0.40;;
18383;SDS011;9318;48.644;9.456;2023-05-21T14:57:36;0.32;;;0.32;;
18383;SDS011;9318;48.644;9.456;2023-05-21T15:00:03;0.30;;;0.30;;
18383;SDS011;9318;48.644;9.456;2023-05-21T15:02:31;0.30;;;0.30;;
18383;SDS011;9318;48.644;9.456;2023-05-21T15:04:58;0.30;;;0.30;;
18383;SDS011;9318;48.644;9.456;2023-05-21T15:07:24;0.30;;;0.30;;
18383;SDS011;9318;48.644;9.456;2023-05-21T15:09:52;0.30;;;0.30;;